createdAt,value
2023-01-08T00:00:16.404Z,1.00
2023-01-08T00:02:43.885Z,0.90
2023-01-08T00:05:11.737Z,0.90
2023-01-08T00:07:39.172Z,0.80
2023-01-08T00:10:07.201Z,0.80
2023-01-08T00:12:35.042Z,0.70
2023-01-08T00:15:02.474Z,0.60
2023-01-08T00:17:29.939Z,0.60
2023-01-08T00:19:57.333Z,0.50
2023-01-08T00:22:24.949Z,0.70
2023-01-08T00:24:52.386Z,0.80
2023-01-08T00:27:19.851Z,0.80
2023-01-08T00:29:47.286Z,0.70
2023-01-08T00:32:14.715Z,0.70
2023-01-08T00:34:42.247Z,0.70
2023-01-08T00:37:09.684Z,0.70
2023-01-08T00:39:37.203Z,0.80
2023-01-08T00:42:04.750Z,0.80
2023-01-08T00:44:32.153Z,0.90
2023-01-08T00:46:59.590Z,0.90
2023-01-08T00:49:27.016Z,0.90
2023-01-08T00:51:54.434Z,0.90
2023-01-08T00:54:22.072Z,0.90
2023-01-08T00:56:49.549Z,0.80
2023-01-08T00:59:16.989Z,0.70
2023-01-08T01:01:44.735Z,0.60
2023-01-08T01:04:12.261Z,0.50
2023-01-08T01:06:39.827Z,0.60
2023-01-08T01:09:08.150Z,0.70
2023-01-08T01:11:35.959Z,0.90
2023-01-08T01:14:03.380Z,0.90
2023-01-08T01:16:30.892Z,0.90
2023-01-08T01:18:58.946Z,0.90
2023-01-08T01:21:30.648Z,0.90
2023-01-08T01:24:01.509Z,0.90
2023-01-08T01:26:29.893Z,0.80
2023-01-08T01:28:58.933Z,0.80
2023-01-08T01:31:30.664Z,0.80
2023-01-08T01:33:58.429Z,0.70
2023-01-08T01:36:26.812Z,0.70
2023-01-08T01:38:56.777Z,0.60
2023-01-08T01:41:31.662Z,0.60
2023-01-08T01:44:21.464Z,0.50
2023-01-08T01:46:50.096Z,0.50
2023-01-08T01:49:23.311Z,0.50
2023-01-08T01:51:56.544Z,0.50
2023-01-08T01:54:25.055Z,0.40
2023-01-08T01:56:52.654Z,0.50
2023-01-08T01:59:20.075Z,0.50
2023-01-08T02:01:48.351Z,0.50
2023-01-08T02:04:16.095Z,0.60
2023-01-08T02:07:14.739Z,0.50
2023-01-08T02:09:59.499Z,0.50
2023-01-08T02:12:54.850Z,0.60
2023-01-08T02:15:49.030Z,0.60
2023-01-08T02:18:44.273Z,0.50
2023-01-08T02:21:38.867Z,0.50
2023-01-08T02:24:28.847Z,0.40
2023-01-08T02:26:59.916Z,0.50
2023-01-08T02:29:28.886Z,0.40
2023-01-08T02:31:57.006Z,0.60
2023-01-08T02:34:24.417Z,0.60
2023-01-08T02:36:55.052Z,0.70
2023-01-08T02:39:38.554Z,0.70
2023-01-08T02:42:32.898Z,0.60
2023-01-08T02:45:47.610Z,0.70
2023-01-08T02:48:26.948Z,0.70
2023-01-08T02:51:03.047Z,0.80
2023-01-08T02:53:38.400Z,0.90
2023-01-08T02:56:17.226Z,0.90
2023-01-08T02:58:48.181Z,0.90
2023-01-08T03:01:21.360Z,0.80
2023-01-08T03:03:56.643Z,0.80
2023-01-08T03:06:25.633Z,0.80
2023-01-08T03:08:54.489Z,0.70
2023-01-08T03:11:25.179Z,0.70
2023-01-08T03:14:08.088Z,0.80
2023-01-08T03:16:40.202Z,0.70
2023-01-08T03:19:44.059Z,0.70
2023-01-08T03:22:16.168Z,0.60
2023-01-08T03:24:46.721Z,0.50
2023-01-08T03:27:19.451Z,0.50
2023-01-08T03:29:51.733Z,0.40
2023-01-08T03:32:22.361Z,0.30
2023-01-08T03:34:54.454Z,0.30
2023-01-08T03:37:29.089Z,0.30
2023-01-08T03:40:10.480Z,0.20
2023-01-08T03:42:38.004Z,0.20
2023-01-08T03:45:06.451Z,0.10
2023-01-08T03:47:35.455Z,0.10
2023-01-08T03:50:07.951Z,0.10
2023-01-08T03:52:35.617Z,0.10
2023-01-08T03:55:03.925Z,0.20
2023-01-08T03:57:31.409Z,0.20
2023-01-08T03:59:58.851Z,0.30
2023-01-08T04:02:26.382Z,0.40
2023-01-08T04:04:53.943Z,0.40
2023-01-08T04:07:21.706Z,0.40
2023-01-08T04:09:49.171Z,0.30
2023-01-08T04:12:16.561Z,0.20
2023-01-08T04:14:44.045Z,0.20
2023-01-08T04:17:15.060Z,0.30
2023-01-08T04:19:42.644Z,0.20
2023-01-08T04:22:11.875Z,0.20
2023-01-08T04:24:39.495Z,0.20
2023-01-08T04:27:06.964Z,0.30
2023-01-08T04:29:34.472Z,0.40
2023-01-08T04:32:01.971Z,0.50
2023-01-08T04:34:29.479Z,0.40
2023-01-08T04:36:57.136Z,0.20
2023-01-08T04:39:24.582Z,0.40
2023-01-08T04:41:52.015Z,0.50
2023-01-08T04:44:19.495Z,0.30
2023-01-08T04:46:46.917Z,0.30
2023-01-08T04:49:14.900Z,0.30
2023-01-08T04:51:42.464Z,0.30
2023-01-08T04:54:10.472Z,0.30
2023-01-08T04:56:37.891Z,0.30
2023-01-08T04:59:05.377Z,0.40
2023-01-08T05:01:33.028Z,0.30
2023-01-08T05:04:03.914Z,0.30
2023-01-08T05:06:33.126Z,0.40
2023-01-08T05:09:00.607Z,0.40
2023-01-08T05:11:28.089Z,0.40
2023-01-08T05:13:56.729Z,0.40
2023-01-08T05:16:24.536Z,0.30
2023-01-08T05:18:51.951Z,0.30
2023-01-08T05:21:19.445Z,0.20
2023-01-08T05:23:48.495Z,0.30
2023-01-08T05:26:17.000Z,0.20
2023-01-08T05:28:44.837Z,0.00
2023-01-08T05:31:12.969Z,-0.10
2023-01-08T05:33:41.049Z,0.20
2023-01-08T05:36:10.897Z,0.30
2023-01-08T05:38:39.524Z,0.40
2023-01-08T05:41:07.885Z,0.40
2023-01-08T05:43:35.796Z,0.40
2023-01-08T05:46:04.508Z,0.30
2023-01-08T05:48:34.485Z,0.30
2023-01-08T05:51:03.123Z,0.30
2023-01-08T05:53:34.097Z,0.20
2023-01-08T05:56:12.354Z,0.00
2023-01-08T05:58:40.011Z,-0.10
2023-01-08T06:01:16.383Z,-0.20
2023-01-08T06:03:43.944Z,0.00
2023-01-08T06:06:12.605Z,0.00
2023-01-08T06:08:40.264Z,-0.10
2023-01-08T06:11:11.267Z,-0.40
2023-01-08T06:13:43.572Z,-0.50
2023-01-08T06:16:11.589Z,-0.30
2023-01-08T06:18:39.442Z,-0.20
2023-01-08T06:21:07.028Z,-0.10
2023-01-08T06:23:34.675Z,-0.10
2023-01-08T06:26:04.427Z,-0.10
2023-01-08T06:28:32.432Z,-0.20
2023-01-08T06:31:03.552Z,-0.30
2023-01-08T06:33:32.053Z,-0.20
2023-01-08T06:36:04.812Z,-0.10
2023-01-08T06:38:34.387Z,0.10
2023-01-08T06:41:07.392Z,0.20
2023-01-08T06:43:36.242Z,0.30
2023-01-08T06:46:06.052Z,0.20
2023-01-08T06:48:33.553Z,0.10
2023-01-08T06:51:02.498Z,0.00
2023-01-08T06:53:30.259Z,-0.20
2023-01-08T06:55:58.976Z,-0.20
2023-01-08T06:58:28.254Z,-0.10
2023-01-08T07:00:55.960Z,-0.10
2023-01-08T07:03:23.520Z,0.00
2023-01-08T07:05:51.057Z,-0.10
2023-01-08T07:08:19.362Z,-0.10
2023-01-08T07:10:47.027Z,0.00
2023-01-08T07:13:15.355Z,0.10
2023-01-08T07:15:44.071Z,0.20
2023-01-08T07:18:13.201Z,0.10
2023-01-08T07:20:41.021Z,0.10
2023-01-08T07:23:12.158Z,-0.10
2023-01-08T07:25:39.795Z,-0.10
2023-01-08T07:28:11.865Z,-0.10
2023-01-08T07:30:39.338Z,0.00
2023-01-08T07:33:06.818Z,0.00
2023-01-08T07:35:35.789Z,0.10
2023-01-08T07:38:03.256Z,0.10
2023-01-08T07:40:31.921Z,0.20
2023-01-08T07:43:01.784Z,0.20
2023-01-08T07:45:30.480Z,0.10
2023-01-08T07:47:59.141Z,0.00
2023-01-08T07:50:27.754Z,0.10
2023-01-08T07:53:02.139Z,0.10
2023-01-08T07:55:31.415Z,0.10
2023-01-08T07:57:59.466Z,0.10
2023-01-08T08:00:27.237Z,0.10
2023-01-08T08:02:54.866Z,0.10
2023-01-08T08:05:22.348Z,0.20
2023-01-08T08:07:49.786Z,0.20
2023-01-08T08:10:17.336Z,0.10
2023-01-08T08:12:47.825Z,0.20
2023-01-08T08:15:15.723Z,0.30
2023-01-08T08:17:49.418Z,0.40
2023-01-08T08:20:17.377Z,0.60
2023-01-08T08:22:44.869Z,0.70
2023-01-08T08:25:15.408Z,0.80
2023-01-08T08:27:44.392Z,0.70
2023-01-08T08:30:13.562Z,0.70
2023-01-08T08:32:41.034Z,0.70
2023-01-08T08:35:08.942Z,0.90
2023-01-08T08:37:36.398Z,1.10
2023-01-08T08:40:04.111Z,1.30
2023-01-08T08:42:31.577Z,1.40
2023-01-08T08:44:58.987Z,1.60
2023-01-08T08:47:26.522Z,1.80
2023-01-08T08:49:53.992Z,2.10
2023-01-08T08:52:21.450Z,2.30
2023-01-08T08:54:48.908Z,2.50
2023-01-08T08:57:16.312Z,2.70
2023-01-08T08:59:43.778Z,2.90
2023-01-08T09:02:12.619Z,3.10
2023-01-08T09:04:40.274Z,3.20
2023-01-08T09:07:07.807Z,3.40
2023-01-08T09:09:35.298Z,3.50
2023-01-08T09:12:02.772Z,3.70
2023-01-08T09:14:30.210Z,3.90
2023-01-08T09:16:57.679Z,4.10
2023-01-08T09:19:25.175Z,4.30
2023-01-08T09:21:52.634Z,4.60
2023-01-08T09:24:20.415Z,4.80
2023-01-08T09:26:47.798Z,4.90
2023-01-08T09:29:15.305Z,5.00
2023-01-08T09:31:42.795Z,5.10
2023-01-08T09:34:10.377Z,5.20
2023-01-08T09:36:37.750Z,5.30
2023-01-08T09:39:05.512Z,5.40
2023-01-08T09:41:36.691Z,5.50
2023-01-08T09:44:06.318Z,5.50
2023-01-08T09:46:34.990Z,5.70
2023-01-08T09:49:07.589Z,6.00
2023-01-08T09:51:37.365Z,6.20
2023-01-08T09:54:07.683Z,6.40
2023-01-08T09:56:37.026Z,6.40
2023-01-08T09:59:05.726Z,6.60
2023-01-08T10:01:38.951Z,6.70
2023-01-08T10:04:21.249Z,6.90
2023-01-08T10:07:00.793Z,7.00
2023-01-08T10:09:31.209Z,7.30
2023-01-08T10:12:05.085Z,7.30
2023-01-08T10:14:48.100Z,7.40
2023-01-08T10:17:41.022Z,7.30
2023-01-08T10:20:31.071Z,7.30
2023-01-08T10:23:14.916Z,7.60
2023-01-08T10:26:02.538Z,7.80
2023-01-08T10:28:38.194Z,7.90
2023-01-08T10:31:09.687Z,8.00
2023-01-08T10:33:44.408Z,8.10
2023-01-08T10:36:16.342Z,8.30
2023-01-08T10:39:01.135Z,8.40
2023-01-08T10:41:29.518Z,8.30
2023-01-08T10:56:41.520Z,8.00
2023-01-08T10:59:23.245Z,8.10
2023-01-08T11:01:53.695Z,8.20
2023-01-08T11:04:34.547Z,8.20
2023-01-08T11:07:05.379Z,8.20
2023-01-08T11:09:47.957Z,8.20
2023-01-08T11:12:36.924Z,8.30
2023-01-08T11:15:28.569Z,8.40
2023-01-08T11:18:10.451Z,8.50
2023-01-08T11:20:39.533Z,8.70
2023-01-08T11:23:24.268Z,8.80
2023-01-08T11:26:05.660Z,9.00
2023-01-08T11:29:16.012Z,9.30
2023-01-08T11:32:09.566Z,9.20
2023-01-08T11:34:57.464Z,9.20
2023-01-08T11:37:29.705Z,9.30
2023-01-08T11:39:57.683Z,9.40
2023-01-08T11:42:46.620Z,9.50
2023-01-08T11:45:31.961Z,9.60
2023-01-08T11:48:08.599Z,9.50
2023-01-08T11:51:12.403Z,9.40
2023-01-08T11:54:07.599Z,9.40
2023-01-08T11:56:46.838Z,9.40
2023-01-08T11:59:48.891Z,9.40
2023-01-08T12:02:41.757Z,9.30
2023-01-08T12:05:48.528Z,9.30
2023-01-08T12:08:52.578Z,9.10
2023-01-08T12:11:33.333Z,9.10
2023-01-08T12:14:32.921Z,9.00
2023-01-08T12:17:31.114Z,9.00
2023-01-08T12:20:17.021Z,9.00
2023-01-08T12:23:02.481Z,8.90
2023-01-08T12:25:52.725Z,8.80
2023-01-08T12:29:25.286Z,8.80
2023-01-08T12:32:18.106Z,8.90
2023-01-08T12:34:56.388Z,8.80
2023-01-08T12:37:44.726Z,8.80
2023-01-08T12:40:49.521Z,8.80
2023-01-08T12:43:33.786Z,8.80
2023-01-08T12:46:03.533Z,8.80
2023-01-08T12:48:36.664Z,8.80
2023-01-08T12:52:16.051Z,8.70
2023-01-08T12:55:00.014Z,8.60
2023-01-08T12:57:27.433Z,8.50
2023-01-08T13:00:23.233Z,8.40
2023-01-08T13:03:02.192Z,8.40
2023-01-08T13:05:36.467Z,8.30
2023-01-08T13:08:37.400Z,8.20
2023-01-08T13:11:05.552Z,8.10
2023-01-08T13:13:45.308Z,8.10
2023-01-08T13:16:14.466Z,8.00
2023-01-08T13:18:51.588Z,7.90
2023-01-08T13:21:29.049Z,7.90
2023-01-08T13:24:27.007Z,7.80
2023-01-08T13:26:54.834Z,7.70
2023-01-08T13:29:44.674Z,7.70
2023-01-08T13:32:45.851Z,7.70
2023-01-08T13:35:16.261Z,7.60
2023-01-08T13:37:45.008Z,7.50
2023-01-08T13:40:44.921Z,7.50
2023-01-08T13:43:29.035Z,7.40
2023-01-08T13:46:02.620Z,7.30
2023-01-08T13:48:35.904Z,7.30
2023-01-08T13:51:04.006Z,7.20
2023-01-08T13:53:32.685Z,7.20
2023-01-08T13:56:08.172Z,7.10
2023-01-08T13:58:53.878Z,7.20
2023-01-08T14:01:23.073Z,7.10
2023-01-08T14:03:51.417Z,7.10
2023-01-08T14:06:20.240Z,7.00
2023-01-08T14:09:04.937Z,7.00
2023-01-08T14:11:45.316Z,6.90
2023-01-08T14:14:22.587Z,6.90
2023-01-08T14:16:53.448Z,6.80
2023-01-08T14:19:24.911Z,6.80
2023-01-08T14:21:59.159Z,6.70
2023-01-08T14:24:27.992Z,6.60
2023-01-08T14:27:00.606Z,6.50
2023-01-08T14:29:31.002Z,6.40
2023-01-08T14:32:01.034Z,6.30
2023-01-08T14:34:31.795Z,6.30
2023-01-08T14:36:59.409Z,6.20
2023-01-08T14:39:35.817Z,6.00
2023-01-08T14:42:32.725Z,5.90
2023-01-08T14:45:08.514Z,5.80
2023-01-08T14:47:49.403Z,5.70
2023-01-08T14:50:40.667Z,5.70
2023-01-08T14:53:43.744Z,5.70
2023-01-08T14:56:37.557Z,5.60
2023-01-08T14:59:12.621Z,5.50
2023-01-08T15:01:40.477Z,5.40
2023-01-08T15:04:15.366Z,5.30
2023-01-08T15:06:42.971Z,5.30
2023-01-08T15:09:25.711Z,5.30
2023-01-08T15:12:08.092Z,5.20
2023-01-08T15:14:37.137Z,5.20
2023-01-08T15:17:18.352Z,5.10
2023-01-08T15:19:58.385Z,5.00
2023-01-08T15:22:31.507Z,4.90
2023-01-08T15:25:03.863Z,4.90
2023-01-08T15:27:31.909Z,4.80
2023-01-08T15:30:04.191Z,4.80
2023-01-08T15:32:37.342Z,4.80
2023-01-08T15:35:19.014Z,4.70
2023-01-08T15:37:46.595Z,4.70
2023-01-08T15:40:14.323Z,4.60
2023-01-08T15:43:00.378Z,4.60
2023-01-08T15:45:32.557Z,4.50
2023-01-08T15:48:00.357Z,4.50
2023-01-08T15:50:29.054Z,4.50
2023-01-08T15:52:57.635Z,4.50
2023-01-08T15:55:25.794Z,4.40
2023-01-08T15:57:55.448Z,4.40
2023-01-08T16:00:23.176Z,4.40
2023-01-08T16:02:53.042Z,4.40
2023-01-08T16:05:23.438Z,4.30
2023-01-08T16:07:51.038Z,4.30
2023-01-08T16:10:19.557Z,4.20
2023-01-08T16:12:47.470Z,4.30
2023-01-08T16:15:16.353Z,4.30
2023-01-08T16:17:44.394Z,4.30
2023-01-08T16:20:13.713Z,4.30
2023-01-08T16:22:41.785Z,4.40
2023-01-08T16:25:10.119Z,4.40
2023-01-08T16:27:38.595Z,4.50
2023-01-08T16:30:09.205Z,4.50
2023-01-08T16:32:36.636Z,4.50
2023-01-08T16:35:04.563Z,4.50
2023-01-08T16:37:32.115Z,4.50
2023-01-08T16:39:59.551Z,4.50
2023-01-08T16:42:27.107Z,4.40
2023-01-08T16:44:54.893Z,4.30
2023-01-08T16:47:22.366Z,4.20
2023-01-08T16:49:50.571Z,4.20
2023-01-08T16:52:18.923Z,4.20
2023-01-08T16:54:47.767Z,4.30
2023-01-08T16:57:15.385Z,4.30
2023-01-08T16:59:42.813Z,4.20
2023-01-08T17:02:10.963Z,4.30
2023-01-08T17:04:38.624Z,4.30
2023-01-08T17:07:06.741Z,4.30
2023-01-08T17:09:34.354Z,4.30
2023-01-08T17:12:02.154Z,4.30
2023-01-08T17:14:29.680Z,4.30
2023-01-08T17:16:57.173Z,4.20
2023-01-08T17:19:24.668Z,4.20
2023-01-08T17:21:52.134Z,4.10
2023-01-08T17:24:19.868Z,4.10
2023-01-08T17:26:47.267Z,4.00
2023-01-08T17:29:14.736Z,4.00
2023-01-08T17:31:42.246Z,4.00
2023-01-08T17:34:13.749Z,4.00
2023-01-08T17:36:41.542Z,3.90
2023-01-08T17:39:11.142Z,3.90
2023-01-08T17:41:58.331Z,3.90
2023-01-08T17:44:26.653Z,3.90
2023-01-08T17:46:54.077Z,3.80
2023-01-08T17:49:21.557Z,3.80
2023-01-08T17:51:49.136Z,3.80
2023-01-08T17:54:17.369Z,3.80
2023-01-08T17:56:44.972Z,3.80
2023-01-08T17:59:14.782Z,3.80
2023-01-08T18:01:42.392Z,3.80
2023-01-08T18:04:10.511Z,3.90
2023-01-08T18:06:38.067Z,3.80
2023-01-08T18:09:05.830Z,3.80
2023-01-08T18:11:33.993Z,3.80
2023-01-08T18:14:03.054Z,3.80
2023-01-08T18:16:32.528Z,3.80
2023-01-08T18:19:01.255Z,3.90
2023-01-08T18:21:29.737Z,3.90
2023-01-08T18:23:57.534Z,3.90
2023-01-08T18:26:25.062Z,4.00
2023-01-08T18:28:53.250Z,4.00
2023-01-08T18:31:21.344Z,4.10
2023-01-08T18:33:52.658Z,4.10
2023-01-08T18:36:21.275Z,4.10
2023-01-08T18:38:49.979Z,4.20
2023-01-08T18:41:38.534Z,4.20
2023-01-08T18:44:07.954Z,4.20
2023-01-08T18:46:35.988Z,4.20
2023-01-08T18:49:03.781Z,4.30
2023-01-08T18:51:31.545Z,4.30
2023-01-08T18:53:59.206Z,4.30
2023-01-08T18:56:34.095Z,4.30
2023-01-08T18:59:03.867Z,4.30
2023-01-08T19:01:31.535Z,4.30
2023-01-08T19:03:59.023Z,4.40
2023-01-08T19:06:26.530Z,4.40
2023-01-08T19:08:56.239Z,4.40
2023-01-08T19:11:25.759Z,4.50
2023-01-08T19:13:57.885Z,4.50
2023-01-08T19:16:25.899Z,4.50
2023-01-08T19:18:53.980Z,4.50
2023-01-08T19:21:21.832Z,4.40
2023-01-08T19:23:49.511Z,4.40
2023-01-08T19:26:17.296Z,4.40
2023-01-08T19:28:44.865Z,4.30
2023-01-08T19:31:16.105Z,4.30
2023-01-08T19:33:44.794Z,4.30
2023-01-08T19:36:16.717Z,4.30
2023-01-08T19:38:45.248Z,4.30
2023-01-08T19:41:31.823Z,4.30
2023-01-08T19:43:59.895Z,4.20
2023-01-08T19:46:28.268Z,4.20
2023-01-08T19:49:00.712Z,4.20
2023-01-08T19:51:30.155Z,4.10
2023-01-08T19:53:59.453Z,4.10
2023-01-08T19:56:27.256Z,4.10
2023-01-08T19:58:57.085Z,4.20
2023-01-08T20:01:27.280Z,4.30
2023-01-08T20:03:56.624Z,4.20
2023-01-08T20:06:27.176Z,4.20
2023-01-08T20:08:59.165Z,4.20
2023-01-08T20:11:28.260Z,4.10
2023-01-08T20:13:56.942Z,4.10
2023-01-08T20:16:24.729Z,4.10
2023-01-08T20:18:58.099Z,4.10
2023-01-08T20:21:25.638Z,4.00
2023-01-08T20:23:59.968Z,3.90
2023-01-08T20:26:30.260Z,3.80
2023-01-08T20:28:58.893Z,3.70
2023-01-08T20:31:30.837Z,3.70
2023-01-08T20:34:02.394Z,3.70
2023-01-08T20:36:33.137Z,3.60
2023-01-08T20:39:05.962Z,3.60
2023-01-08T20:41:33.549Z,3.60
2023-01-08T20:44:06.975Z,3.50
2023-01-08T20:46:35.984Z,3.60
2023-01-08T20:49:08.477Z,3.60
2023-01-08T20:51:40.897Z,3.60
2023-01-08T20:54:14.887Z,3.50
2023-01-08T20:56:43.864Z,3.50
2023-01-08T20:59:12.008Z,3.30
2023-01-08T21:01:39.565Z,3.20
2023-01-08T21:04:10.306Z,3.10
2023-01-08T21:06:38.335Z,3.00
2023-01-08T21:09:09.966Z,3.00
2023-01-08T21:11:40.640Z,2.90
2023-01-08T21:14:09.578Z,2.80
2023-01-08T21:16:39.757Z,2.70
2023-01-08T21:19:10.553Z,2.60
2023-01-08T21:21:40.937Z,2.40
2023-01-08T21:24:12.336Z,2.40
2023-01-08T21:26:39.956Z,2.20
2023-01-08T21:29:09.198Z,1.90
2023-01-08T21:31:38.909Z,1.80
2023-01-08T21:34:09.009Z,1.70
2023-01-08T21:36:37.302Z,1.60
2023-01-08T21:39:05.147Z,1.50
2023-01-08T21:41:51.305Z,1.40
2023-01-08T21:44:43.244Z,1.40
2023-01-08T21:47:16.694Z,1.30
2023-01-08T21:49:46.133Z,1.30
2023-01-08T21:52:32.623Z,1.40
2023-01-08T21:55:00.398Z,1.70
2023-01-08T21:57:28.762Z,1.80
2023-01-08T21:59:56.883Z,1.70
2023-01-08T22:02:25.143Z,1.50
2023-01-08T22:04:55.856Z,1.50
2023-01-08T22:07:24.608Z,1.40
2023-01-08T22:09:52.536Z,1.30
2023-01-08T22:12:20.654Z,1.40
2023-01-08T22:14:48.355Z,1.60
2023-01-08T22:17:15.815Z,1.70
2023-01-08T22:19:43.236Z,1.60
2023-01-08T22:22:11.315Z,1.60
2023-01-08T22:24:39.960Z,1.70
2023-01-08T22:27:08.811Z,1.60
2023-01-08T22:29:37.831Z,1.60
2023-01-08T22:32:05.622Z,1.50
2023-01-08T22:34:35.193Z,1.40
2023-01-08T22:37:02.814Z,1.30
2023-01-08T22:39:30.567Z,1.30
2023-01-08T22:41:58.138Z,1.30
2023-01-08T22:44:25.595Z,1.40
2023-01-08T22:46:53.039Z,1.30
2023-01-08T22:49:20.475Z,1.10
2023-01-08T22:51:47.925Z,1.00
2023-01-08T22:54:17.463Z,0.80
2023-01-08T22:56:44.918Z,0.80
2023-01-08T22:59:12.381Z,0.80
2023-01-08T23:01:39.847Z,0.80
2023-01-08T23:04:07.447Z,0.80
2023-01-08T23:06:35.923Z,0.70
2023-01-08T23:09:03.801Z,0.60
2023-01-08T23:11:33.143Z,0.70
2023-01-08T23:14:01.185Z,0.80
2023-01-08T23:16:28.829Z,0.70
2023-01-08T23:18:57.202Z,0.70
2023-01-08T23:21:26.557Z,0.60
2023-01-08T23:23:54.395Z,0.70
2023-01-08T23:26:28.701Z,0.70
2023-01-08T23:28:58.069Z,0.70
2023-01-08T23:31:29.346Z,0.90
2023-01-08T23:33:58.099Z,1.00
2023-01-08T23:36:26.199Z,1.00
2023-01-08T23:38:56.191Z,0.80
2023-01-08T23:41:34.439Z,0.90
2023-01-08T23:44:06.473Z,1.10
2023-01-08T23:46:35.385Z,1.10
2023-01-08T23:49:02.908Z,1.00
2023-01-08T23:51:30.562Z,0.90
2023-01-08T23:53:58.038Z,0.90
2023-01-08T23:56:26.174Z,1.00
2023-01-08T23:58:54.196Z,1.10
